tititudorancea.com
Station Historical Data
Daily Summary for November 18, 2018 Units:  Metric    English   Both
« Previous Day
Next Day »
Daily Weekly Monthly Yearly Custom
  High: Low: Average:
Temperature: -17.8 °C 8.2 °C 17.9 °C
Dew Point: -17.8 °C 4.9 °C 7.1 °C
Humidity: Humidity % 24 % 56 %
Wind Speed: 0 km/h 0 km/h 10.3 km/h
Wind Gust: 0 km/h - -
Wind:- - ESE
Pressure: 0 hPa 1013.4 hPa -
Precipitation: 0 mm    
Historical Graphs
 
 
Ararat weather Find more about Weather in Ararat, AU


 



 


Tabular Data for November 18, 2018
Time Temperature Dew Point Pressure Wind Wind Speed Wind Gust Humidity Rainfall Rate (Hourly)
-17.8 °C -17.8 °C 0 hPa Calm     Humidity % 0 mm
00:04 9.3 °C 5.9 °C 1021.9 hPa SSE 13 km/h 8 km/h 79 % 0 mm
00:09 9.3 °C 5.8 °C 1021.9 hPa SSE 14.8 km/h 7.1 km/h 79 % 0 mm
00:14 9.2 °C 5.9 °C 1021.9 hPa SSE 11.1 km/h 7.9 km/h 80 % 0 mm
00:19 9.1 °C 6 °C 1021.9 hPa SSE 14.5 km/h 9.5 km/h 81 % 0 mm
00:24 9.1 °C 6.2 °C 1021.9 hPa SSE 11.1 km/h 7.7 km/h 82 % 0 mm
00:29 9.1 °C 6.2 °C 1021.9 hPa SSE 16.7 km/h 5.3 km/h 82 % 0 mm
00:34 9.1 °C 6.3 °C 1021.9 hPa SSE 11.1 km/h 6.3 km/h 83 % 0 mm
00:39 9 °C 6.3 °C 1021.9 hPa SSE 11.1 km/h 5.3 km/h 83 % 0 mm
00:44 9 °C 6.3 °C 1021.9 hPa SSE 9.3 km/h 6.3 km/h 83 % 0 mm
00:49 8.9 °C 6.4 °C 1021.6 hPa SSE 7.4 km/h 4 km/h 84 % 0 mm
00:54 8.9 °C 6.3 °C 1021.9 hPa SSE 11.1 km/h 8.5 km/h 84 % 0 mm
00:59 8.8 °C 6.2 °C 1021.6 hPa SSE 9.3 km/h 8.7 km/h 84 % 0 mm
01:04 8.7 °C 6.3 °C 1021.6 hPa SSE 6.4 km/h 2.7 km/h 85 % 0 mm
01:09 8.7 °C 6.3 °C 1021.6 hPa SSE 5.6 km/h 3.2 km/h 85 % 0 mm
01:14 8.7 °C 6.3 °C 1021.6 hPa SSE 13 km/h 10 km/h 85 % 0 mm
01:19 8.6 °C 6.2 °C 1021.2 hPa SSE 9.7 km/h 9.5 km/h 85 % 0 mm
01:24 8.6 °C 6.3 °C 1021.2 hPa SSE 11.3 km/h 7.7 km/h 86 % 0 mm
01:29 8.5 °C 6.3 °C 1021.2 hPa SSE 6.4 km/h 5 km/h 86 % 0 mm
01:34 8.5 °C 6.4 °C 1021.2 hPa SSE 9.3 km/h 6.6 km/h 87 % 0 mm
01:39 8.5 °C 6.4 °C 1021.2 hPa SSE 7.4 km/h 5.1 km/h 87 % 0 mm
01:44 8.5 °C 6.4 °C 1021.2 hPa SSE 8 km/h 6.3 km/h 87 % 0 mm
01:49 8.5 °C 6.6 °C 1021.2 hPa SSE 9.3 km/h 6.8 km/h 88 % 0 mm
01:54 8.6 °C 6.7 °C 1020.9 hPa SSE 13 km/h 10 km/h 88 % 0 mm
01:59 8.6 °C 6.7 °C 1020.9 hPa SSE 11.1 km/h 6.1 km/h 88 % 0 mm
02:04 8.6 °C 6.7 °C 1020.9 hPa SSE 13 km/h 5.6 km/h 88 % 0 mm
02:09 8.7 °C 6.8 °C 1020.5 hPa SSE 16.7 km/h 10.3 km/h 88 % 0 mm
02:14 8.7 °C 6.8 °C 1020.5 hPa SSE 13 km/h 6.4 km/h 88 % 0 mm
02:19 8.7 °C 7 °C 1020.5 hPa SSE 13 km/h 5.3 km/h 89 % 0 mm
02:24 8.7 °C 7 °C 1020.5 hPa SSE 9.7 km/h 8.7 km/h 89 % 0 mm
02:29 8.7 °C 7 °C 1020.2 hPa SSE 14.8 km/h 8 km/h 89 % 0 mm
02:34 8.7 °C 6.9 °C 1020.2 hPa SSE 9.7 km/h 8 km/h 89 % 0 mm
02:39 8.6 °C 6.7 °C 1020.2 hPa SSE 11.1 km/h 7.2 km/h 88 % 0 mm
02:44 8.4 °C 6.7 °C 1020.2 hPa South 14.8 km/h 12.4 km/h 89 % 0 mm
02:49 8.5 °C 6.8 °C 1020.2 hPa South 12.9 km/h 10 km/h 89 % 0 mm
02:54 8.6 °C 6.8 °C 1019.9 hPa South 16.7 km/h 13.5 km/h 89 % 0 mm
02:59 8.6 °C 6.9 °C 1019.5 hPa SSE 16.7 km/h 12.2 km/h 89 % 0 mm
03:04 8.7 °C 6.9 °C 1019.5 hPa SSE 14.8 km/h 12.4 km/h 89 % 0 mm
03:09 8.7 °C 6.9 °C 1019.9 hPa SSE 16.7 km/h 6.3 km/h 89 % 0 mm
03:14 8.7 °C 6.9 °C 1019.5 hPa SSE 16.7 km/h 9.5 km/h 89 % 0 mm
03:19 8.6 °C 6.9 °C 1019.5 hPa SSE 14.8 km/h 11.3 km/h 89 % 0 mm
03:24 8.6 °C 6.8 °C 1019.5 hPa South 16.7 km/h 10.6 km/h 89 % 0 mm
03:29 8.5 °C 6.8 °C 1019.5 hPa South 16.7 km/h 11.4 km/h 89 % 0 mm
03:34 8.6 °C 6.8 °C 1019.5 hPa South 16.7 km/h 11.3 km/h 89 % 0 mm
03:39 8.6 °C 6.9 °C 1019.5 hPa South 14.8 km/h 13 km/h 89 % 0 mm
03:44 8.6 °C 6.9 °C 1019.5 hPa South 14.8 km/h 11.1 km/h 89 % 0 mm
03:49 8.7 °C 7 °C 1019.5 hPa South 13 km/h 10.3 km/h 89 % 0 mm
03:54 8.8 °C 7.1 °C 1019.2 hPa South 13 km/h 13 km/h 89 % 0 mm
03:59 8.8 °C 7.1 °C 1019.2 hPa South 16.7 km/h 8.4 km/h 89 % 0 mm
04:04 8.8 °C 7.1 °C 1019.2 hPa South 18.5 km/h 10.6 km/h 89 % 0 mm
04:09 8.7 °C 7 °C 1019.5 hPa South 14.8 km/h 10 km/h 89 % 0 mm
04:14 8.7 °C 7 °C 1019.5 hPa South 14.8 km/h 7.9 km/h 89 % 0 mm
04:19 8.8 °C 7.2 °C 1019.2 hPa South 13 km/h 10.3 km/h 90 % 0 mm
04:24 8.8 °C 7.3 °C 1019.2 hPa South 14.8 km/h 10.5 km/h 90 % 0 mm
04:29 8.8 °C 7.3 °C 1019.2 hPa South 18.5 km/h 12.2 km/h 90 % 0 mm
04:34 8.9 °C 7.4 °C 1019.2 hPa South 14.8 km/h 9.8 km/h 90 % 0 mm
04:39 8.9 °C 7.4 °C 1019.2 hPa South 11.1 km/h 10 km/h 90 % 0 mm
04:44 8.9 °C 7.3 °C 1019.2 hPa South 14.8 km/h 8.5 km/h 90 % 0 mm
04:49 8.9 °C 7.4 °C 1019.2 hPa South 14.8 km/h 9.5 km/h 90 % 0 mm
04:54 8.9 °C 7.4 °C 1019.5 hPa South 14.8 km/h 8.7 km/h 90 % 0 mm
04:59 8.9 °C 7.4 °C 1019.5 hPa South 12.9 km/h 10.9 km/h 90 % 0 mm
05:04 8.9 °C 7.3 °C 1019.5 hPa South 13 km/h 7.2 km/h 90 % 0 mm
05:09 8.9 °C 7.5 °C 1019.5 hPa South 14.8 km/h 8.2 km/h 91 % 0 mm
05:14 8.9 °C 7.5 °C 1019.5 hPa South 16.7 km/h 9.5 km/h 91 % 0 mm
05:19 8.8 °C 7.3 °C 1019.5 hPa South 6.4 km/h 5 km/h 90 % 0 mm
05:24 8.6 °C 7 °C 1019.5 hPa South 8 km/h 7.4 km/h 90 % 0 mm
05:29 8.3 °C 6.7 °C 1019.5 hPa South 11.3 km/h 7.7 km/h 90 % 0 mm
05:34 8.3 °C 6.9 °C 1019.5 hPa South 9.3 km/h 7.2 km/h 91 % 0 mm
05:39 8.2 °C 6.8 °C 1019.5 hPa South 11.1 km/h 7.4 km/h 91 % 0 mm
05:44 8.2 °C 6.8 °C 1019.5 hPa South 9.3 km/h 7.2 km/h 91 % 0 mm
05:49 8.2 °C 7 °C 1019.5 hPa South 9.3 km/h 8.5 km/h 92 % 0 mm
05:54 8.2 °C 7 °C 1019.5 hPa South 13 km/h 8.5 km/h 92 % 0 mm
05:59 8.2 °C 7 °C 1019.5 hPa South 13 km/h 6.4 km/h 92 % 0 mm
06:04 8.2 °C 7 °C 1019.9 hPa South 9.3 km/h 6.8 km/h 92 % 0 mm
06:09 8.3 °C 7.1 °C 1019.9 hPa North 9.3 km/h 6.9 km/h 92 % 0 mm
06:14 8.2 °C 7 °C 1019.9 hPa South 9.3 km/h 6.1 km/h 92 % 0 mm
06:19 8.2 °C 7 °C 1019.9 hPa South 7.4 km/h 6.3 km/h 92 % 0 mm
06:24 8.3 °C 7.1 °C 1019.9 hPa South 9.7 km/h 5.8 km/h 92 % 0 mm
06:29 8.3 °C 7.3 °C 1019.9 hPa South 13 km/h 7.1 km/h 93 % 0 mm
06:34 8.4 °C 7.3 °C 1019.9 hPa South 9.7 km/h 6.9 km/h 93 % 0 mm
06:39 8.4 °C 7.4 °C 1019.9 hPa South 5.6 km/h 5.3 km/h 93 % 0 mm
06:44 8.6 °C 7.6 °C 1019.9 hPa South 7.4 km/h 5.6 km/h 93 % 0 mm
06:49 8.7 °C 7.7 °C 1020.2 hPa South 5.6 km/h 4.7 km/h 93 % 0 mm
06:54 8.8 °C 7.8 °C 1020.2 hPa South 7.4 km/h 3.4 km/h 93 % 0 mm
06:59 8.9 °C 7.9 °C 1020.2 hPa South 5.6 km/h 2.7 km/h 93 % 0 mm
07:04 9.1 °C 8.1 °C 1020.2 hPa South 5.6 km/h 5.5 km/h 93 % 0 mm
07:09 9.2 °C 8.2 °C 1020.2 hPa South 5.6 km/h 3.4 km/h 93 % 0 mm
07:14 9.3 °C 8.3 °C 1020.2 hPa South 9.3 km/h 4.7 km/h 93 % 0 mm
07:19 9.4 °C 8.3 °C 1020.2 hPa South 9.7 km/h 5.3 km/h 93 % 0 mm
07:24 9.5 °C 8.4 °C 1020.2 hPa South 9.7 km/h 6.8 km/h 93 % 0 mm
07:29 9.7 °C 8.4 °C 1020.2 hPa South 14.8 km/h 11.1 km/h 92 % 0 mm
07:34 9.8 °C 8.6 °C 1020.2 hPa South 7.4 km/h 6.8 km/h 92 % 0 mm
07:39 10 °C 8.8 °C 1020.2 hPa South 11.1 km/h 5.8 km/h 92 % 0 mm
07:44 10.2 °C 9 °C 1020.5 hPa South 9.3 km/h 5 km/h 92 % 0 mm
07:49 10.4 °C 9 °C 1020.5 hPa South 9.3 km/h 5.8 km/h 91 % 0 mm
07:54 10.6 °C 9.2 °C 1020.5 hPa South 5.6 km/h 3.5 km/h 91 % 0 mm
07:59 10.8 °C 9.2 °C 1020.5 hPa South 9.3 km/h 5.3 km/h 90 % 0 mm
08:04 10.9 °C 9.7 °C 1020.5 hPa South 11.1 km/h 9.2 km/h 92 % 0 mm
08:09 11.1 °C 9.4 °C 1020.5 hPa South 4.8 km/h 3.4 km/h 89 % 0 mm
08:14 11.5 °C 9.6 °C 1020.5 hPa South 5.6 km/h 4.5 km/h 88 % 0 mm
08:19 11.7 °C 9.6 °C 1020.5 hPa South 5.6 km/h 0.3 km/h 87 % 0 mm
08:24 11.9 °C 9.7 °C 1020.5 hPa South 5.6 km/h 3.7 km/h 86 % 0 mm
08:29 12.3 °C 10.1 °C 1020.5 hPa South 7.4 km/h 3.4 km/h 86 % 0 mm
08:34 12.7 °C 10.1 °C 1020.5 hPa South 5.6 km/h 3.1 km/h 84 % 0 mm
08:39 12.9 °C 9.9 °C 1020.5 hPa South 4.8 km/h 3.2 km/h 82 % 0 mm
08:42 13.1 °C 10.1 °C 1020.5 hPa South 4.8 km/h 0.6 km/h 82 % 0 mm
08:54 14.4 °C 10.4 °C 1020.5 hPa South 3.7 km/h 3.7 km/h 77 % 0 mm
08:59 14.6 °C 10 °C 1020.5 hPa South 5.6 km/h 2.6 km/h 74 % 0 mm
09:04 15.1 °C 10.7 °C 1020.2 hPa South 5.6 km/h 4.5 km/h 75 % 0 mm
09:09 15.8 °C 10.6 °C 1020.2 hPa South 3.7 km/h 1.1 km/h 71 % 0 mm
09:14 16.3 °C 10.3 °C 1020.2 hPa South 5.6 km/h 3.2 km/h 68 % 0 mm
09:19 16.3 °C 10.2 °C 1020.2 hPa South 5.6 km/h 3.5 km/h 67 % 0 mm
09:24 16.4 °C 9.8 °C 1020.2 hPa South 3.7 km/h 0.5 km/h 65 % 0 mm
09:29 16.8 °C 10.2 °C 1020.2 hPa South 3.2 km/h 1.4 km/h 65 % 0 mm
09:34 17.4 °C 10.1 °C 1019.9 hPa South 5.6 km/h 5.6 km/h 62 % 0 mm
09:39 17.6 °C 9.7 °C 1019.9 hPa South 7.4 km/h 5.5 km/h 60 % 0 mm
09:44 17.7 °C 9.6 °C 1019.9 hPa South 5.6 km/h 2.7 km/h 59 % 0 mm
09:49 18 °C 9.9 °C 1019.9 hPa South 8 km/h 2.9 km/h 59 % 0 mm
09:54 18.4 °C 9.2 °C 1019.5 hPa South 9.3 km/h 3.2 km/h 55 % 0 mm
09:59 18.7 °C 9.5 °C 1019.9 hPa South 5.6 km/h 4.2 km/h 55 % 0 mm
10:04 19.4 °C 9.8 °C 1019.5 hPa South 5.6 km/h 2.6 km/h 54 % 0 mm
10:09 20.1 °C 9 °C 1019.5 hPa NNE 13 km/h 10.3 km/h 49 % 0 mm
10:14 20.8 °C 9.1 °C 1019.5 hPa NNE 16.7 km/h 4.7 km/h 47 % 0 mm
10:19 21.2 °C 8.4 °C 1019.5 hPa NE 20.4 km/h 15.3 km/h 44 % 0 mm
10:24 21.1 °C 8.7 °C 1019.5 hPa NNE 20.4 km/h 10 km/h 45 % 0 mm
10:29 21.2 °C 8.4 °C 1019.5 hPa NNE 20.4 km/h 13.2 km/h 44 % 0 mm
10:34 21.2 °C 8.8 °C 1019.5 hPa NE 20.4 km/h 10.9 km/h 45 % 0 mm
10:39 21.4 °C 8.6 °C 1019.5 hPa ENE 17.7 km/h 7.6 km/h 44 % 0 mm
10:44 21.7 °C 8.6 °C 1019.5 hPa NE 16.7 km/h 6.9 km/h 43 % 0 mm
10:49 21.9 °C 8.8 °C 1019.5 hPa NE 16.1 km/h 9 km/h 43 % 0 mm
10:54 21.9 °C 8.4 °C 1019.5 hPa NNE 18.5 km/h 10.3 km/h 42 % 0 mm
10:59 22.1 °C 8.9 °C 1019.2 hPa East 16.7 km/h 6.4 km/h 43 % 0 mm
11:04 22.3 °C 8.8 °C 1019.5 hPa NNE 16.7 km/h 11.9 km/h 42 % 0 mm
11:09 22.4 °C 8.8 °C 1019.2 hPa NE 18.5 km/h 9 km/h 42 % 0 mm
11:14 22.5 °C 8.2 °C 1019.2 hPa NNE 14.5 km/h 7.1 km/h 40 % 0 mm
11:19 22.9 °C 8.6 °C 1019.2 hPa North 19.3 km/h 10.9 km/h 40 % 0 mm
11:24 22.7 °C 8.4 °C 1019.2 hPa North 13 km/h 13.4 km/h 40 % 0 mm
11:29 22.7 °C 8.4 °C 1018.8 hPa NE 20.4 km/h 11.1 km/h 40 % 0 mm
11:34 23 °C 8.3 °C 1018.8 hPa NE 20.4 km/h 9.7 km/h 39 % 0 mm
11:39 23.1 °C 8.4 °C 1018.8 hPa NNE 25.9 km/h 19.5 km/h 39 % 0 mm
11:44 23.1 °C 8.4 °C 1018.8 hPa North 18.5 km/h 12.1 km/h 39 % 0 mm
11:49 23.2 °C 8.5 °C 1018.8 hPa NNE 14.5 km/h 9.7 km/h 39 % 0 mm
11:54 23.4 °C 8.3 °C 1018.8 hPa NE 27.8 km/h 9.8 km/h 38 % 0 mm
11:59 23.7 °C 8.9 °C 1018.5 hPa ENE 11.3 km/h 7.4 km/h 39 % 0 mm
12:04 24 °C 8.8 °C 1018.5 hPa ENE 16.7 km/h 7.2 km/h 38 % 0 mm
12:09 23.9 °C 8.3 °C 1018.2 hPa ENE 9.3 km/h 6.4 km/h 37 % 0 mm
12:14 24.2 °C 8.6 °C 1018.2 hPa North 16.7 km/h 7.4 km/h 37 % 0 mm
12:19 24.4 °C 8.8 °C 1018.2 hPa NE 16.7 km/h 6 km/h 37 % 0 mm
12:24 24.4 °C 8.4 °C 1018.2 hPa NE 18.5 km/h 11.7 km/h 36 % 0 mm
12:29 24.5 °C 8.4 °C 1018.2 hPa East 16.7 km/h 11.9 km/h 36 % 0 mm
12:34 24.7 °C 8.2 °C 1017.8 hPa North 14.8 km/h 11.9 km/h 35 % 0 mm
12:39 24.6 °C 8.1 °C 1017.8 hPa NNE 7.4 km/h 2.6 km/h 35 % 0 mm
12:44 25 °C 8.1 °C 1017.8 hPa NNE 13 km/h 7.6 km/h 34 % 0 mm
12:49 25.3 °C 7.8 °C 1017.8 hPa ENE 18.5 km/h 10.3 km/h 33 % 0 mm
12:54 25.6 °C 7.7 °C 1017.5 hPa NNE 20.4 km/h 15.6 km/h 32 % 0 mm
12:59 25.4 °C 7.5 °C 1017.5 hPa ENE 27.8 km/h 10.8 km/h 32 % 0 mm
13:04 25.2 °C 8.2 °C 1017.5 hPa NNE 6.4 km/h 4.7 km/h 34 % 0 mm
13:09 25.6 °C 7.2 °C 1017.5 hPa NE 18.5 km/h 10.1 km/h 31 % 0 mm
13:14 25.7 °C 7.3 °C 1017.5 hPa ENE 18.5 km/h 10 km/h 31 % 0 mm
13:19 26 °C 7.6 °C 1017.2 hPa North 18.5 km/h 8.7 km/h 31 % 0 mm
13:24 26.2 °C 7.7 °C 1017.2 hPa North 24.1 km/h 16.9 km/h 31 % 0 mm
13:29 25.9 °C 7.1 °C 1017.2 hPa North 9.7 km/h 5.1 km/h 30 % 0 mm
13:34 26.1 °C 6.7 °C 1017.2 hPa NNE 31.5 km/h 19 km/h 29 % 0 mm
13:39 26.2 °C 6.7 °C 1016.8 hPa NNE 18.5 km/h 15.8 km/h 29 % 0 mm
13:44 25.9 °C 7.1 °C 1016.8 hPa ENE 18.5 km/h 9.5 km/h 30 % 0 mm
13:49 25.8 °C 6.9 °C 1016.8 hPa ENE 5.6 km/h 5.3 km/h 30 % 0 mm
13:54 26.1 °C 7.1 °C 1016.8 hPa NE 18.5 km/h 12.9 km/h 30 % 0 mm
13:59 26.2 °C 7.2 °C 1016.8 hPa ENE 18.5 km/h 9.8 km/h 30 % 0 mm
14:04 26.2 °C 7.2 °C 1016.5 hPa ENE 24.1 km/h 18.5 km/h 30 % 0 mm
14:09 26.3 °C 6.8 °C 1016.5 hPa East 13 km/h 10.6 km/h 29 % 0 mm
14:14 26.6 °C 6.6 °C 1016.5 hPa East 20.9 km/h 18 km/h 28 % 0 mm
14:19 26.8 °C 6.8 °C 1016.5 hPa ENE 24.1 km/h 11.6 km/h 28 % 0 mm
14:24 26.9 °C 6.3 °C 1016.5 hPa North 7.4 km/h 5.6 km/h 27 % 0 mm
14:29 26.7 °C 6.7 °C 1016.1 hPa NNE 9.3 km/h 2.1 km/h 28 % 0 mm
14:34 26.7 °C 6.7 °C 1016.1 hPa East 27.8 km/h 19.5 km/h 28 % 0 mm
14:39 26.8 °C 6.8 °C 1015.8 hPa East 18.5 km/h 10 km/h 28 % 0 mm
14:44 27 °C 6.4 °C 1015.8 hPa East 8 km/h 4.7 km/h 27 % 0 mm
14:49 27.2 °C 6.6 °C 1015.8 hPa NNE 9.3 km/h 6.1 km/h 27 % 0 mm
14:54 27.2 °C 6.6 °C 1015.8 hPa NNE 18.5 km/h 13.5 km/h 27 % 0 mm
14:59 27.4 °C 6.2 °C 1015.8 hPa East 16.1 km/h 10.3 km/h 26 % 0 mm
15:04 27.4 °C 6.7 °C 1015.8 hPa East 14.8 km/h 13 km/h 27 % 0 mm
15:09 27.5 °C 7.3 °C 1015.8 hPa ENE 18.5 km/h 5.3 km/h 28 % 0 mm
15:14 27.6 °C 6.9 °C 1015.8 hPa ENE 14.8 km/h 8.5 km/h 27 % 0 mm
15:19 27.5 °C 6.8 °C 1015.5 hPa ENE 7.4 km/h 5.8 km/h 27 % 0 mm
15:24 27.3 °C 6.7 °C 1015.5 hPa NE 17.7 km/h 8.2 km/h 27 % 0 mm
15:29 27.4 °C 5.7 °C 1015.5 hPa ENE 24.1 km/h 10 km/h 25 % 0 mm
15:34 27.3 °C 6.1 °C 1015.1 hPa East 13 km/h 6.3 km/h 26 % 0 mm
15:39 27.6 °C 5.8 °C 1015.1 hPa ENE 11.1 km/h 6.4 km/h 25 % 0 mm
15:44 28.1 °C 6.7 °C 1015.1 hPa ENE 6.4 km/h 4.5 km/h 26 % 0 mm
15:49 28.2 °C 5.7 °C 1015.1 hPa NNE 16.7 km/h 8.7 km/h 24 % 0 mm
15:54 27.8 °C 6.5 °C 1015.1 hPa NE 9.7 km/h 5.3 km/h 26 % 0 mm
15:59 27.7 °C 5.8 °C 1015.1 hPa NE 7.4 km/h 3.7 km/h 25 % 0 mm
16:04 27.4 °C 6.2 °C 1014.8 hPa NNE 14.8 km/h 9.5 km/h 26 % 0 mm
16:09 27.2 °C 5.5 °C 1014.8 hPa NNE 9.3 km/h 5.6 km/h 25 % 0 mm
16:14 27.4 °C 5.7 °C 1014.8 hPa NE 11.3 km/h 9.3 km/h 25 % 0 mm
16:19 27.3 °C 4.9 °C 1014.8 hPa ENE 11.1 km/h 7.9 km/h 24 % 0 mm
16:24 26.8 °C 5.7 °C 1014.8 hPa ENE 9.7 km/h 7.1 km/h 26 % 0 mm
16:29 26.8 °C 5.7 °C 1014.8 hPa ENE 13 km/h 5.5 km/h 26 % 0 mm
16:34 27.4 °C 6.2 °C 1014.8 hPa NE 16.1 km/h 9.2 km/h 26 % 0 mm
16:39 27.4 °C 5.7 °C 1014.4 hPa NE 18.5 km/h 0.6 km/h 25 % 0 mm
16:44 27.6 °C 5.8 °C 1014.4 hPa NE 18.5 km/h 10.8 km/h 25 % 0 mm
16:49 27.2 °C 5.5 °C 1014.4 hPa NE 9.3 km/h 2.6 km/h 25 % 0 mm
16:54 26.9 °C 5.2 °C 1014.4 hPa NE 7.4 km/h 5.5 km/h 25 % 0 mm
16:59 26.8 °C 5.2 °C 1014.4 hPa NE 7.4 km/h 3.5 km/h 25 % 0 mm
17:04 26.8 °C 5.7 °C 1014.4 hPa NE 6.4 km/h 4.2 km/h 26 % 0 mm
17:09 26.7 °C 5.6 °C 1014.4 hPa NE 11.3 km/h 6.9 km/h 26 % 0 mm
17:14 26.5 °C 5.4 °C 1014.1 hPa NE 5.6 km/h 1.9 km/h 26 % 0 mm
17:19 26.6 °C 5.5 °C 1014.1 hPa NE 9.3 km/h 7.6 km/h 26 % 0 mm
17:24 27 °C 5.8 °C 1014.1 hPa NE 9.3 km/h 6.4 km/h 26 % 0 mm
17:29 27.4 °C 6.2 °C 1014.1 hPa NE 12.9 km/h 6.1 km/h 26 % 0 mm
17:34 27.8 °C 5.4 °C 1014.1 hPa ENE 22.2 km/h 14.6 km/h 24 % 0 mm
17:39 27.9 °C 5.4 °C 1014.1 hPa ENE 6.4 km/h 3.7 km/h 24 % 0 mm
17:44 28.1 °C 5.6 °C 1014.1 hPa NNE 16.7 km/h 10.3 km/h 24 % 0 mm
17:49 27.9 °C 5.4 °C 1014.1 hPa NNE 14.8 km/h 9 km/h 24 % 0 mm
17:54 27.4 °C 5.6 °C 1013.8 hPa NNE 13 km/h 6.3 km/h 25 % 0 mm
17:59 26.9 °C 5.2 °C 1013.8 hPa NNE 13 km/h 8 km/h 25 % 0 mm
18:04 26.7 °C 5.6 °C 1013.8 hPa NNE 13 km/h 7.9 km/h 26 % 0 mm
18:09 26.6 °C 5.5 °C 1013.8 hPa NNE 9.3 km/h 4.3 km/h 26 % 0 mm
18:14 26.8 °C 5.7 °C 1013.8 hPa NNE 11.1 km/h 5.1 km/h 26 % 0 mm
18:19 27.2 °C 6 °C 1013.8 hPa NE 9.3 km/h 9.8 km/h 26 % 0 mm
18:24 27.3 °C 5.6 °C 1013.8 hPa NE 14.8 km/h 9 km/h 25 % 0 mm
18:29 27.4 °C 5 °C 1013.8 hPa NE 11.3 km/h 8 km/h 24 % 0 mm
18:34 27.3 °C 5.6 °C 1013.4 hPa NNE 6.4 km/h 4.8 km/h 25 % 0 mm
18:39 27.3 °C 5.6 °C 1013.4 hPa NNE 11.1 km/h 4 km/h 25 % 0 mm
18:44 27.2 °C 5.5 °C 1013.4 hPa NNE 7.4 km/h 3.5 km/h 25 % 0 mm
18:49 27.1 °C 5.4 °C 1013.4 hPa NE 11.1 km/h 4 km/h 25 % 0 mm
18:54 27 °C 5.3 °C 1013.4 hPa NE 5.6 km/h 4 km/h 25 % 0 mm
18:59 26.9 °C 5.2 °C 1013.4 hPa ENE 9.3 km/h 3.7 km/h 25 % 0 mm
19:04 26.8 °C 5.7 °C 1013.8 hPa ENE 5.6 km/h 3.1 km/h 26 % 0 mm
19:09 26.8 °C 5.7 °C 1013.4 hPa ENE 5.6 km/h 2.9 km/h 26 % 0 mm
19:14 26.9 °C 5.8 °C 1013.8 hPa ENE 9.7 km/h 7.4 km/h 26 % 0 mm
19:19 26.8 °C 5.7 °C 1013.8 hPa NE 9.3 km/h 7.9 km/h 26 % 0 mm
19:24 26.6 °C 5.5 °C 1013.8 hPa NE 7.4 km/h 4.2 km/h 26 % 0 mm
19:29 26.4 °C 5.9 °C 1013.8 hPa NE 9.3 km/h 3.5 km/h 27 % 0 mm
19:34 26.2 °C 5.7 °C 1013.8 hPa ENE 13 km/h 4.7 km/h 27 % 0 mm
19:39 26.1 °C 5.7 °C 1013.8 hPa NE 9.7 km/h 10 km/h 27 % 0 mm
19:44 25.9 °C 5.5 °C 1013.8 hPa ENE 9.3 km/h 4.8 km/h 27 % 0 mm
19:49 25.9 °C 5.4 °C 1013.8 hPa ENE 5.6 km/h 4.5 km/h 27 % 0 mm
19:54 25.7 °C 5.8 °C 1013.8 hPa ENE 7.4 km/h 4 km/h 28 % 0 mm
19:59 25.4 °C 5.6 °C 1013.8 hPa ENE 11.1 km/h 4.5 km/h 28 % 0 mm
20:04 25.2 °C 5.4 °C 1014.1 hPa ENE 5.6 km/h 3.2 km/h 28 % 0 mm
20:09 25 °C 5.7 °C 1014.1 hPa ENE 5.6 km/h 0.2 km/h 29 % 0 mm
20:14 24.8 °C 5.6 °C 1014.1 hPa ENE 1.9 km/h 1 km/h 29 % 0 mm
20:19 24.6 °C 5.4 °C 1014.1 hPa ENE 5.6 km/h 2.7 km/h 29 % 0 mm
20:24 24.4 °C 5.7 °C 1014.1 hPa ENE 3.2 km/h 2.4 km/h 30 % 0 mm
20:29 24.1 °C 5.9 °C 1014.1 hPa ENE 1.9 km/h 0.5 km/h 31 % 0 mm
20:34 23.8 °C 5.7 °C 1014.1 hPa ENE 1.9 km/h   31 % 0 mm
20:39 23.4 °C 5.8 °C 1014.1 hPa Calm     32 % 0 mm
20:44 23.1 °C 5.9 °C 1014.1 hPa Calm     33 % 0 mm
20:49 22.7 °C 6.1 °C 1014.1 hPa Calm     34 % 0 mm
20:54 22.2 °C 6 °C 1014.1 hPa Calm     35 % 0 mm
20:59 21.8 °C 6.1 °C 1014.4 hPa Calm     36 % 0 mm
21:04 21.4 °C 6.5 °C 1014.1 hPa Calm     38 % 0 mm
21:09 21 °C 6.5 °C 1014.1 hPa Calm     39 % 0 mm
21:14 20.7 °C 6.6 °C 1014.4 hPa Calm     40 % 0 mm
21:19 20.2 °C 6.9 °C 1014.4 hPa Calm     42 % 0 mm
21:24 19.9 °C 6.9 °C 1014.4 hPa Calm     43 % 0 mm
21:29 19.6 °C 7 °C 1014.4 hPa Calm     44 % 0 mm
21:34 19.3 °C 6.8 °C 1014.4 hPa Calm     44 % 0 mm
21:39 19.1 °C 6.9 °C 1014.1 hPa Calm     45 % 0 mm
21:44 18.8 °C 7.3 °C 1014.4 hPa Calm     47 % 0 mm
21:49 18.6 °C 7.3 °C 1014.4 hPa Calm     48 % 0 mm
21:54 18.4 °C 7.5 °C 1014.4 hPa Calm     49 % 0 mm
21:59 18.1 °C 7.5 °C 1014.4 hPa Calm     50 % 0 mm
22:04 17.9 °C 7.4 °C 1014.4 hPa Calm     50 % 0 mm
22:09 17.9 °C 7.3 °C 1014.4 hPa Calm     50 % 0 mm
22:14 17.7 °C 7.1 °C 1014.4 hPa Calm     50 % 0 mm
22:19 17.6 °C 7.1 °C 1014.4 hPa Calm     50 % 0 mm
22:24 17.6 °C 7.3 °C 1014.4 hPa Calm     51 % 0 mm
22:29 17.5 °C 7.2 °C 1014.4 hPa Calm     51 % 0 mm
22:34 17.4 °C 7.2 °C 1014.4 hPa Calm     51 % 0 mm
22:39 17.3 °C 7.3 °C 1014.4 hPa Calm     52 % 0 mm
22:44 17 °C 7.3 °C 1014.4 hPa Calm     53 % 0 mm
22:49 16.7 °C 7.1 °C 1014.4 hPa Calm     53 % 0 mm
22:54 16.5 °C 6.9 °C 1014.4 hPa Calm     53 % 0 mm
22:59 16.4 °C 6.8 °C 1014.8 hPa Calm     53 % 0 mm
23:04 16.3 °C 7 °C 1014.8 hPa Calm     54 % 0 mm
23:09 16.1 °C 6.8 °C 1014.8 hPa Calm     54 % 0 mm
23:14 16 °C 7.2 °C 1014.8 hPa Calm     56 % 0 mm
23:19 15.8 °C 7.3 °C 1014.8 hPa Calm     57 % 0 mm
23:24 15.6 °C 7.1 °C 1014.8 hPa Calm     57 % 0 mm
23:29 15.6 °C 6.6 °C 1014.8 hPa Calm     55 % 0 mm
23:34 15.8 °C 6.6 °C 1014.8 hPa Calm     54 % 0 mm
23:39 16 °C 6.9 °C 1014.8 hPa Calm     55 % 0 mm
23:44 16 °C 6.2 °C 1014.4 hPa Calm     52 % 0 mm
23:49 16.2 °C 6.1 °C 1014.8 hPa Calm     51 % 0 mm
23:54 16.2 °C 6.3 °C 1014.4 hPa Calm     52 % 0 mm
23:59 16.2 °C 6.1 °C 1014.4 hPa Calm     51 % 0 mm
Ararat Weather
Compliments of Weather Underground - 2.25 mb
Click here to send mail.


ABOUT

Live weather data from Ararat, Victoria, Australia, 3377
Data uploaded from Cumulus every 5 minutes to Weather Underground.
This site then downloads the raw data for formatting and display.
Metric and imperial data can be displayed. Graphs and historical data available.
Includes Sun and Moon times and rain image live from BOM.

Check out Ararat Weather on Facebook, Twitter and Google +

Help support ongoing costs by checking out the ads





Follow @AraratWeather